createdAt,value
2022-11-11T00:01:03.479Z,102187.69
2022-11-11T00:03:30.909Z,102193.00
2022-11-11T00:06:03.034Z,102200.28
2022-11-11T00:08:29.511Z,102198.72
2022-11-11T00:11:07.082Z,102196.31
2022-11-11T00:13:34.398Z,102190.66
2022-11-11T00:16:15.161Z,102187.44
2022-11-11T00:19:01.906Z,102187.56
2022-11-11T00:21:28.534Z,102193.22
2022-11-11T00:24:24.101Z,102184.50
2022-11-11T00:26:50.672Z,102186.78
2022-11-11T00:29:17.194Z,102186.97
2022-11-11T00:32:02.214Z,102178.25
2022-11-11T00:34:28.602Z,102178.44
2022-11-11T00:36:55.070Z,102169.53
2022-11-11T00:39:21.518Z,102173.84
2022-11-11T00:41:47.977Z,102169.66
2022-11-11T00:44:14.550Z,102166.00
2022-11-11T00:46:59.493Z,102167.56
2022-11-11T00:49:44.309Z,102161.41
2022-11-11T00:52:10.799Z,102157.53
2022-11-11T00:54:37.289Z,102153.75
2022-11-11T00:57:03.790Z,102152.81
2022-11-11T00:59:30.167Z,102157.16
2022-11-11T01:01:56.695Z,102144.41
2022-11-11T01:04:23.237Z,102141.59
2022-11-11T01:06:49.713Z,102135.88
2022-11-11T01:09:16.298Z,102139.06
2022-11-11T01:11:42.768Z,102135.66
2022-11-11T01:14:09.207Z,102143.13
2022-11-11T01:16:35.718Z,102135.34
2022-11-11T01:19:02.161Z,102144.72
2022-11-11T01:21:28.602Z,102136.09
2022-11-11T01:23:55.403Z,102145.34
2022-11-11T01:26:29.179Z,102144.53
2022-11-11T01:28:57.733Z,102139.06
2022-11-11T01:31:25.543Z,102149.09
2022-11-11T01:33:52.021Z,102146.41
2022-11-11T01:36:21.567Z,102147.13
2022-11-11T01:38:55.575Z,102161.34
2022-11-11T01:41:35.585Z,102156.84
2022-11-11T01:44:11.168Z,102158.28
2022-11-11T01:46:42.660Z,102162.78
2022-11-11T01:49:42.971Z,102152.44
2022-11-11T01:52:18.942Z,102160.34
2022-11-11T01:55:09.288Z,102170.50
2022-11-11T01:57:51.184Z,102173.38
2022-11-11T02:00:19.254Z,102181.34
2022-11-11T02:02:51.282Z,102180.66
2022-11-11T02:05:38.899Z,102177.06
2022-11-11T02:08:10.622Z,102186.97
2022-11-11T02:10:38.355Z,102178.91
2022-11-11T02:13:30.766Z,102171.94
2022-11-11T02:15:57.504Z,102173.06
2022-11-11T02:18:24.339Z,102172.66
2022-11-11T02:20:50.975Z,102182.84
2022-11-11T02:23:26.785Z,102184.25
2022-11-11T02:25:56.292Z,102184.94
2022-11-11T02:28:27.628Z,102187.63
2022-11-11T02:30:54.342Z,102183.59
2022-11-11T02:33:21.004Z,102182.56
2022-11-11T02:35:58.822Z,102178.28
2022-11-11T02:38:26.193Z,102185.81
2022-11-11T02:41:11.684Z,102184.94
2022-11-11T02:43:38.151Z,102178.00
2022-11-11T02:46:07.613Z,102183.47
2022-11-11T02:48:34.811Z,102181.59
2022-11-11T02:51:01.445Z,102173.00
2022-11-11T02:53:28.340Z,102174.31
2022-11-11T02:55:55.164Z,102160.75
2022-11-11T02:58:21.637Z,102156.38
2022-11-11T03:00:48.429Z,102168.75
2022-11-11T03:03:15.020Z,102161.41
2022-11-11T03:05:41.493Z,102158.03
2022-11-11T03:08:08.227Z,102144.47
2022-11-11T03:10:34.718Z,102146.75
2022-11-11T03:13:01.144Z,102143.34
2022-11-11T03:15:27.551Z,102129.75
2022-11-11T03:17:54.252Z,102120.19
2022-11-11T03:20:39.242Z,102124.75
2022-11-11T03:23:08.222Z,102112.00
2022-11-11T03:25:38.549Z,102114.72
2022-11-11T03:28:10.886Z,102107.34
2022-11-11T03:30:39.998Z,102115.25
2022-11-11T03:33:06.874Z,102113.03
2022-11-11T03:35:34.151Z,102119.91
2022-11-11T03:38:16.294Z,102125.06
2022-11-11T03:40:44.473Z,102127.28
2022-11-11T03:43:12.269Z,102126.38
2022-11-11T03:45:39.141Z,102120.19
2022-11-11T03:48:06.284Z,102118.75
2022-11-11T03:50:33.197Z,102126.06
2022-11-11T03:52:59.872Z,102115.25
2022-11-11T03:55:27.543Z,102120.09
2022-11-11T03:57:53.974Z,102113.28
2022-11-11T04:00:25.820Z,102114.31
2022-11-11T04:03:19.621Z,102114.19
2022-11-11T04:06:04.468Z,102126.13
2022-11-11T04:08:49.257Z,102139.06
2022-11-11T04:11:27.052Z,102148.00
2022-11-11T04:14:14.993Z,102144.81
2022-11-11T04:16:41.373Z,102130.53
2022-11-11T04:19:25.999Z,102138.00
2022-11-11T04:21:52.538Z,102148.31
2022-11-11T04:24:39.986Z,102164.53
2022-11-11T04:27:09.603Z,102162.50
2022-11-11T04:29:36.616Z,102178.22
2022-11-11T04:32:23.392Z,102180.22
2022-11-11T04:34:57.769Z,102180.94
2022-11-11T04:37:26.441Z,102168.09
2022-11-11T04:40:11.794Z,102169.53
2022-11-11T04:42:41.584Z,102166.28
2022-11-11T04:45:32.694Z,102166.19
2022-11-11T04:48:10.336Z,102172.00
2022-11-11T04:50:39.277Z,102177.88
2022-11-11T04:53:10.168Z,102178.78
2022-11-11T04:55:55.653Z,102177.56
2022-11-11T04:58:24.351Z,102174.72
2022-11-11T05:00:51.001Z,102173.72
2022-11-11T05:03:19.117Z,102164.00
2022-11-11T05:06:18.434Z,102172.81
2022-11-11T05:08:56.007Z,102171.28
2022-11-11T05:11:28.472Z,102181.81
2022-11-11T05:14:16.740Z,102181.94
2022-11-11T05:17:04.591Z,102184.03
2022-11-11T05:19:49.775Z,102192.75
2022-11-11T05:22:38.741Z,102188.28
2022-11-11T05:25:24.489Z,102182.31
2022-11-11T05:27:52.870Z,102176.97
2022-11-11T05:30:20.602Z,102175.84
2022-11-11T05:32:47.370Z,102180.19
2022-11-11T05:35:14.803Z,102171.69
2022-11-11T05:37:42.325Z,102171.16
2022-11-11T05:40:09.989Z,102185.84
2022-11-11T05:42:47.052Z,102180.38
2022-11-11T05:45:16.029Z,102180.38
2022-11-11T05:47:42.444Z,102183.31
2022-11-11T05:50:09.270Z,102179.56
2022-11-11T05:52:35.636Z,102180.66
2022-11-11T05:55:02.028Z,102189.69
2022-11-11T05:57:28.395Z,102195.16
2022-11-11T05:59:54.877Z,102193.44
2022-11-11T06:02:21.498Z,102191.56
2022-11-11T06:04:47.993Z,102199.16
2022-11-11T06:07:14.430Z,102197.63
2022-11-11T06:09:40.863Z,102204.34
2022-11-11T06:12:07.388Z,102211.03
2022-11-11T06:14:33.784Z,102213.44
2022-11-11T06:17:00.180Z,102207.06
2022-11-11T06:19:26.576Z,102212.03
2022-11-11T06:21:59.097Z,102208.72
2022-11-11T06:24:26.991Z,102213.44
2022-11-11T06:26:54.935Z,102220.34
2022-11-11T06:29:21.684Z,102220.16
2022-11-11T06:31:48.346Z,102225.63
2022-11-11T06:34:14.874Z,102232.47
2022-11-11T06:36:41.286Z,102228.63
2022-11-11T06:39:07.794Z,102226.81
2022-11-11T06:41:34.174Z,102221.03
2022-11-11T06:44:00.614Z,102220.03
2022-11-11T06:46:27.412Z,102217.69
2022-11-11T06:48:53.861Z,102218.72
2022-11-11T06:51:20.310Z,102225.31
2022-11-11T06:53:46.781Z,102220.72
2022-11-11T06:56:13.228Z,102218.78
2022-11-11T06:58:40.129Z,102220.34
2022-11-11T07:01:08.296Z,102217.59
2022-11-11T07:03:35.835Z,102209.28
2022-11-11T07:06:03.743Z,102220.97
2022-11-11T07:08:30.631Z,102224.69
2022-11-11T07:10:57.268Z,102231.66
2022-11-11T07:13:24.264Z,102226.91
2022-11-11T07:15:50.687Z,102222.56
2022-11-11T07:18:17.071Z,102222.66
2022-11-11T07:20:43.528Z,102221.53
2022-11-11T07:23:09.984Z,102229.53
2022-11-11T07:25:36.412Z,102237.66
2022-11-11T07:28:02.878Z,102232.06
2022-11-11T07:30:29.408Z,102241.56
2022-11-11T07:32:55.955Z,102245.13
2022-11-11T07:35:23.097Z,102242.28
2022-11-11T07:37:49.748Z,102242.59
2022-11-11T07:40:17.782Z,102242.97
2022-11-11T07:42:44.801Z,102244.19
2022-11-11T07:45:13.098Z,102258.09
2022-11-11T07:47:39.615Z,102263.44
2022-11-11T07:50:08.492Z,102261.56
2022-11-11T07:52:37.241Z,102262.50
2022-11-11T07:55:05.328Z,102268.69
2022-11-11T07:57:31.883Z,102272.66
2022-11-11T07:59:59.650Z,102274.28
2022-11-11T08:02:26.083Z,102275.38
2022-11-11T08:04:55.289Z,102271.97
2022-11-11T08:07:23.808Z,102276.66
2022-11-11T08:09:51.286Z,102278.09
2022-11-11T08:12:36.335Z,102288.50
2022-11-11T08:15:06.493Z,102299.69
2022-11-11T08:17:39.227Z,102296.03
2022-11-11T08:20:08.917Z,102299.19
2022-11-11T08:22:39.741Z,102311.06
2022-11-11T08:25:09.099Z,102315.47
2022-11-11T08:27:36.881Z,102323.38
2022-11-11T08:30:04.813Z,102325.19
2022-11-11T08:32:31.194Z,102331.06
2022-11-11T08:34:57.585Z,102325.88
2022-11-11T08:37:24.086Z,102327.41
2022-11-11T08:39:52.342Z,102338.97
2022-11-11T08:42:18.827Z,102338.94
2022-11-11T08:44:45.328Z,102341.44
2022-11-11T08:47:11.740Z,102336.78
2022-11-11T08:49:38.146Z,102344.06
2022-11-11T08:52:04.865Z,102346.88
2022-11-11T08:54:31.276Z,102346.00
2022-11-11T08:56:57.685Z,102349.50
2022-11-11T08:59:24.121Z,102356.47
2022-11-11T09:01:50.503Z,102365.38
2022-11-11T09:04:43.114Z,102366.00
2022-11-11T09:07:03.609Z,102381.03
2022-11-11T09:09:30.091Z,102371.97
2022-11-11T09:11:56.617Z,102389.44
2022-11-11T09:14:23.254Z,102380.91
2022-11-11T09:16:49.939Z,102383.22
2022-11-11T09:19:16.527Z,102383.22
2022-11-11T09:21:42.934Z,102396.75
2022-11-11T09:24:09.612Z,102394.13
2022-11-11T09:26:36.102Z,102392.84
2022-11-11T09:29:02.585Z,102395.94
2022-11-11T09:31:43.951Z,102392.03
2022-11-11T09:34:12.343Z,102394.97
2022-11-11T09:36:39.060Z,102393.44
2022-11-11T09:39:05.588Z,102401.28
2022-11-11T09:41:51.832Z,102417.13
2022-11-11T09:44:56.681Z,102405.06
2022-11-11T09:47:26.225Z,102407.47
2022-11-11T09:50:06.607Z,102402.97
2022-11-11T09:52:54.940Z,102402.94
2022-11-11T09:55:33.485Z,102403.66
2022-11-11T09:58:12.244Z,102415.16
2022-11-11T10:00:43.014Z,102412.88
2022-11-11T10:03:20.451Z,102417.44
2022-11-11T10:05:59.846Z,102417.25
2022-11-11T10:08:40.682Z,102419.69
2022-11-11T10:11:16.481Z,102419.19
2022-11-11T10:13:42.940Z,102421.28
2022-11-11T10:16:28.552Z,102421.09
2022-11-11T10:19:23.926Z,102417.88
2022-11-11T10:22:11.677Z,102430.03
2022-11-11T10:24:50.821Z,102426.06
2022-11-11T10:27:21.246Z,102418.88
2022-11-11T10:29:49.143Z,102419.72
2022-11-11T10:32:29.815Z,102416.00
2022-11-11T10:35:05.721Z,102428.44
2022-11-11T10:37:42.283Z,102417.13
2022-11-11T10:40:32.284Z,102420.84
2022-11-11T10:42:59.200Z,102415.16
2022-11-11T10:45:41.940Z,102416.97
2022-11-11T10:48:20.340Z,102429.59
2022-11-11T10:51:00.335Z,102424.44
2022-11-11T10:53:43.248Z,102422.81
2022-11-11T10:56:43.346Z,102419.88
2022-11-11T10:59:13.206Z,102417.97
2022-11-11T11:01:54.878Z,102414.91
2022-11-11T11:04:43.027Z,102419.44
2022-11-11T11:07:13.829Z,102425.25
2022-11-11T11:09:48.105Z,102426.47
2022-11-11T11:12:24.988Z,102421.09
2022-11-11T11:14:56.648Z,102420.16
2022-11-11T11:17:31.125Z,102405.81
2022-11-11T11:20:12.857Z,102405.34
2022-11-11T11:22:50.144Z,102409.34
2022-11-11T11:25:18.676Z,102409.66
2022-11-11T11:27:45.612Z,102400.94
2022-11-11T11:30:23.813Z,102404.44
2022-11-11T11:33:16.693Z,102401.69
2022-11-11T11:35:45.193Z,102410.50
2022-11-11T11:38:13.396Z,102398.50
2022-11-11T11:40:56.467Z,102403.41
2022-11-11T11:43:37.637Z,102403.41
2022-11-11T11:46:35.309Z,102393.72
2022-11-11T11:49:11.403Z,102398.09
2022-11-11T11:52:00.302Z,102402.84
2022-11-11T11:54:35.787Z,102402.63
2022-11-11T11:57:31.325Z,102397.31
2022-11-11T12:00:16.680Z,102386.13
2022-11-11T12:03:17.429Z,102390.84
2022-11-11T12:06:04.030Z,102393.09
2022-11-11T12:08:38.428Z,102388.09
2022-11-11T12:11:18.290Z,102395.03
2022-11-11T12:13:57.455Z,102398.31
2022-11-11T12:16:26.467Z,102398.13
2022-11-11T12:19:10.026Z,102396.50
2022-11-11T12:21:57.916Z,102396.50
2022-11-11T12:24:42.640Z,102400.22
2022-11-11T12:27:21.689Z,102396.19
2022-11-11T12:30:03.420Z,102385.06
2022-11-11T12:33:00.524Z,102393.50
2022-11-11T12:35:41.254Z,102394.44
2022-11-11T12:38:32.240Z,102390.28
2022-11-11T12:41:44.844Z,102385.88
2022-11-11T12:44:14.035Z,102393.72
2022-11-11T12:46:59.068Z,102391.47
2022-11-11T12:49:37.633Z,102392.44
2022-11-11T12:52:22.984Z,102390.66
2022-11-11T12:55:01.836Z,102377.69
2022-11-11T12:57:58.225Z,102374.28
2022-11-11T13:00:26.463Z,102365.53
2022-11-11T13:03:31.320Z,102382.06
2022-11-11T13:06:09.587Z,102383.06
2022-11-11T13:09:23.736Z,102389.53
2022-11-11T13:12:18.129Z,102382.56
2022-11-11T13:14:47.746Z,102384.66
2022-11-11T13:17:15.249Z,102383.38
2022-11-11T13:20:05.288Z,102385.00
2022-11-11T13:22:33.047Z,102388.22
2022-11-11T13:25:04.784Z,102388.88
2022-11-11T13:27:34.483Z,102386.13
2022-11-11T13:30:38.587Z,102386.28
2022-11-11T13:33:13.028Z,102375.28
2022-11-11T13:35:44.744Z,102383.69
2022-11-11T13:38:28.619Z,102382.75
2022-11-11T13:40:58.415Z,102386.13
2022-11-11T13:43:31.892Z,102389.03
2022-11-11T13:46:01.465Z,102382.91
2022-11-11T13:48:30.577Z,102389.19
2022-11-11T13:51:24.864Z,102393.72
2022-11-11T13:53:51.789Z,102387.75
2022-11-11T13:56:44.736Z,102385.63
2022-11-11T13:59:28.257Z,102388.38
2022-11-11T14:02:23.150Z,102391.94
2022-11-11T14:05:01.847Z,102389.38
2022-11-11T14:07:49.785Z,102392.63
2022-11-11T14:10:16.455Z,102392.78
2022-11-11T14:12:53.912Z,102392.91
2022-11-11T14:15:37.803Z,102390.84
2022-11-11T14:18:10.652Z,102384.81
2022-11-11T14:20:41.151Z,102387.28
2022-11-11T14:23:28.828Z,102390.66
2022-11-11T14:26:11.039Z,102388.06
2022-11-11T14:29:03.580Z,102379.66
2022-11-11T14:31:29.922Z,102386.63
2022-11-11T14:34:19.754Z,102380.94
2022-11-11T14:37:27.185Z,102383.03
2022-11-11T14:39:55.710Z,102378.69
2022-11-11T14:42:45.710Z,102382.53
2022-11-11T14:45:30.473Z,102380.13
2022-11-11T14:47:59.952Z,102389.03
2022-11-11T14:50:32.312Z,102389.44
2022-11-11T14:53:28.886Z,102385.09
2022-11-11T14:55:55.784Z,102390.06
2022-11-11T14:58:25.690Z,102387.97
2022-11-11T15:01:00.856Z,102399.44
2022-11-11T15:03:42.157Z,102392.63
2022-11-11T15:06:18.414Z,102396.34
2022-11-11T15:08:59.444Z,102392.41
2022-11-11T15:11:51.661Z,102404.19
2022-11-11T15:14:52.062Z,102407.25
2022-11-11T15:17:45.268Z,102403.84
2022-11-11T15:20:40.963Z,102409.34
2022-11-11T15:23:30.713Z,102400.34
2022-11-11T15:26:21.672Z,102407.06
2022-11-11T15:28:59.355Z,102405.00
2022-11-11T15:31:37.747Z,102399.78
2022-11-11T15:34:16.295Z,102388.09
2022-11-11T15:36:55.984Z,102393.63
2022-11-11T15:39:27.337Z,102391.81
2022-11-11T15:41:54.432Z,102388.81
2022-11-11T15:44:29.113Z,102400.66
2022-11-11T15:46:56.094Z,102393.09
2022-11-11T15:49:41.863Z,102394.31
2022-11-11T15:52:23.184Z,102398.97
2022-11-11T15:54:50.858Z,102394.53
2022-11-11T15:57:23.881Z,102398.16
2022-11-11T15:59:50.526Z,102389.81
2022-11-11T16:02:27.787Z,102389.84
2022-11-11T16:05:00.832Z,102395.59
2022-11-11T16:07:32.111Z,102393.28
2022-11-11T16:10:04.941Z,102389.06
2022-11-11T16:12:41.807Z,102390.34
2022-11-11T16:15:09.580Z,102391.91
2022-11-11T16:17:39.924Z,102387.19
2022-11-11T16:20:14.090Z,102386.75
2022-11-11T16:22:42.681Z,102377.34
2022-11-11T16:25:19.728Z,102386.56
2022-11-11T16:27:46.740Z,102386.09
2022-11-11T16:30:32.791Z,102386.31
2022-11-11T16:32:59.925Z,102391.53
2022-11-11T16:35:35.261Z,102397.84
2022-11-11T16:38:03.947Z,102396.66
2022-11-11T16:40:33.069Z,102392.78
2022-11-11T16:43:27.932Z,102390.47
2022-11-11T16:46:08.694Z,102391.41
2022-11-11T16:48:45.216Z,102403.50
2022-11-11T16:51:23.257Z,102397.75
2022-11-11T16:54:34.621Z,102396.53
2022-11-11T16:57:01.319Z,102403.34
2022-11-11T16:59:43.215Z,102401.63
2022-11-11T17:02:17.093Z,102406.19
2022-11-11T17:04:51.458Z,102395.56
2022-11-11T17:07:33.029Z,102408.72
2022-11-11T17:10:08.964Z,102405.16
2022-11-11T17:12:40.314Z,102397.56
2022-11-11T17:15:13.470Z,102401.38
2022-11-11T17:17:41.766Z,102403.81
2022-11-11T17:20:08.640Z,102412.03
2022-11-11T17:22:35.043Z,102406.94
2022-11-11T17:25:01.687Z,102405.00
2022-11-11T17:27:31.872Z,102407.34
2022-11-11T17:29:58.526Z,102408.84
2022-11-11T17:32:25.004Z,102413.06
2022-11-11T17:34:51.478Z,102407.28
2022-11-11T17:37:18.134Z,102408.41
2022-11-11T17:39:44.872Z,102399.78
2022-11-11T17:42:11.458Z,102403.03
2022-11-11T17:44:38.001Z,102404.75
2022-11-11T17:47:04.455Z,102408.13
2022-11-11T17:49:55.268Z,102398.81
2022-11-11T17:52:17.429Z,102406.19
2022-11-11T17:54:43.934Z,102408.34
2022-11-11T17:57:10.516Z,102406.81
2022-11-11T17:59:36.982Z,102408.94
2022-11-11T18:02:03.901Z,102404.13
2022-11-11T18:04:30.527Z,102415.91
2022-11-11T18:06:57.009Z,102407.13
2022-11-11T18:09:23.451Z,102405.78
2022-11-11T18:11:49.862Z,102402.50
2022-11-11T18:14:17.690Z,102405.03
2022-11-11T18:16:45.171Z,102404.53
2022-11-11T18:19:11.684Z,102415.59
2022-11-11T18:21:41.952Z,102411.13
2022-11-11T18:24:09.943Z,102411.50
2022-11-11T18:26:37.724Z,102412.47
2022-11-11T18:29:10.693Z,102410.63
2022-11-11T18:31:37.262Z,102417.09
2022-11-11T18:34:04.076Z,102410.28
2022-11-11T18:36:30.581Z,102416.19
2022-11-11T18:38:57.087Z,102418.94
2022-11-11T18:41:24.339Z,102426.59
2022-11-11T18:43:52.185Z,102423.72
2022-11-11T18:46:21.643Z,102433.59
2022-11-11T18:48:48.393Z,102433.06
2022-11-11T18:51:17.440Z,102432.84
2022-11-11T18:53:44.070Z,102435.75
2022-11-11T18:56:13.444Z,102434.88
2022-11-11T18:58:40.259Z,102437.16
2022-11-11T19:01:13.408Z,102437.06
2022-11-11T19:03:41.081Z,102437.66
2022-11-11T19:06:09.199Z,102437.78
2022-11-11T19:08:35.839Z,102432.00
2022-11-11T19:11:03.587Z,102440.91
2022-11-11T19:13:30.263Z,102442.53
2022-11-11T19:15:56.916Z,102449.28
2022-11-11T19:18:23.733Z,102454.66
2022-11-11T19:20:50.156Z,102450.06
2022-11-11T19:23:16.623Z,102450.94
2022-11-11T19:25:43.416Z,102450.06
2022-11-11T19:28:10.893Z,102450.94
2022-11-11T19:30:37.338Z,102454.28
2022-11-11T19:33:04.021Z,102446.50
2022-11-11T19:35:30.435Z,102449.19
2022-11-11T19:37:56.888Z,102454.56
2022-11-11T19:40:23.435Z,102456.59
2022-11-11T19:42:50.789Z,102461.84
2022-11-11T19:45:17.322Z,102454.97
2022-11-11T19:47:44.101Z,102460.19
2022-11-11T19:50:10.580Z,102470.84
2022-11-11T19:52:37.296Z,102468.94
2022-11-11T19:55:04.014Z,102467.84
2022-11-11T19:57:30.568Z,102472.97
2022-11-11T19:59:56.959Z,102473.19
2022-11-11T20:02:23.423Z,102468.09
2022-11-11T20:04:49.825Z,102472.75
2022-11-11T20:07:16.334Z,102472.81
2022-11-11T20:09:42.806Z,102477.97
2022-11-11T20:12:09.302Z,102479.06
2022-11-11T20:14:35.756Z,102483.41
2022-11-11T20:17:02.224Z,102484.91
2022-11-11T20:19:28.656Z,102492.50
2022-11-11T20:21:55.110Z,102485.25
2022-11-11T20:24:21.589Z,102492.06
2022-11-11T20:26:52.324Z,102495.56
2022-11-11T20:29:19.198Z,102497.19
2022-11-11T20:31:45.668Z,102499.41
2022-11-11T20:34:12.098Z,102498.69
2022-11-11T20:36:38.549Z,102496.47
2022-11-11T20:39:05.040Z,102505.34
2022-11-11T20:41:31.910Z,102504.91
2022-11-11T20:43:58.299Z,102505.94
2022-11-11T20:46:24.781Z,102502.50
2022-11-11T20:48:52.293Z,102510.06
2022-11-11T20:51:21.211Z,102521.97
2022-11-11T20:53:51.801Z,102512.34
2022-11-11T20:56:23.613Z,102515.88
2022-11-11T20:58:54.447Z,102523.22
2022-11-11T21:01:24.986Z,102531.88
2022-11-11T21:03:59.121Z,102533.78
2022-11-11T21:06:27.069Z,102531.84
2022-11-11T21:08:53.559Z,102528.53
2022-11-11T21:11:21.760Z,102534.50
2022-11-11T21:13:48.396Z,102533.16
2022-11-11T21:16:17.592Z,102529.16
2022-11-11T21:18:45.933Z,102528.91
2022-11-11T21:21:13.928Z,102531.38
2022-11-11T21:23:41.183Z,102530.78
2022-11-11T21:26:11.058Z,102525.41
2022-11-11T21:28:39.131Z,102521.84
2022-11-11T21:31:08.875Z,102520.88
2022-11-11T21:33:36.603Z,102523.81
2022-11-11T21:36:04.703Z,102516.22
2022-11-11T21:38:31.171Z,102514.59
2022-11-11T21:41:11.564Z,102523.06
2022-11-11T21:43:39.297Z,102526.88
2022-11-11T21:46:08.340Z,102523.34
2022-11-11T21:48:35.531Z,102525.53
2022-11-11T21:51:09.630Z,102525.28
2022-11-11T21:53:38.368Z,102525.56
2022-11-11T21:56:10.577Z,102531.31
2022-11-11T21:58:37.249Z,102527.78
2022-11-11T22:01:08.593Z,102530.16
2022-11-11T22:03:36.421Z,102531.59
2022-11-11T22:06:08.638Z,102532.69
2022-11-11T22:08:36.081Z,102541.63
2022-11-11T22:11:13.857Z,102542.97
2022-11-11T22:13:42.201Z,102537.84
2022-11-11T22:16:30.159Z,102542.44
2022-11-11T22:19:03.473Z,102536.16
2022-11-11T22:21:32.965Z,102541.91
2022-11-11T22:24:02.543Z,102545.44
2022-11-11T22:26:47.173Z,102548.94
2022-11-11T22:29:13.688Z,102541.69
2022-11-11T22:31:44.466Z,102543.56
2022-11-11T22:34:14.037Z,102543.25
2022-11-11T22:36:40.557Z,102539.47
2022-11-11T22:39:08.409Z,102541.16
2022-11-11T22:41:37.567Z,102541.69
2022-11-11T22:44:04.564Z,102547.59
2022-11-11T22:46:32.899Z,102552.50
2022-11-11T22:49:05.730Z,102550.34
2022-11-11T22:51:33.620Z,102547.31
2022-11-11T22:54:05.466Z,102551.41
2022-11-11T22:56:34.639Z,102554.47
2022-11-11T22:59:03.955Z,102553.91
2022-11-11T23:01:32.040Z,102553.19
2022-11-11T23:04:01.734Z,102561.94
2022-11-11T23:06:35.763Z,102558.38
2022-11-11T23:09:03.934Z,102554.31
2022-11-11T23:11:32.173Z,102555.66
2022-11-11T23:14:01.004Z,102552.47
2022-11-11T23:16:28.574Z,102555.19
2022-11-11T23:18:55.229Z,102552.78
2022-11-11T23:21:23.631Z,102553.31
2022-11-11T23:23:51.863Z,102556.06
2022-11-11T23:26:30.056Z,102556.03
2022-11-11T23:28:57.070Z,102559.59
2022-11-11T23:31:31.417Z,102561.22
2022-11-11T23:34:00.150Z,102567.75
2022-11-11T23:36:28.599Z,102561.75
2022-11-11T23:38:55.103Z,102570.19
2022-11-11T23:41:21.659Z,102569.38
2022-11-11T23:43:48.114Z,102571.31
2022-11-11T23:46:14.653Z,102567.22
2022-11-11T23:48:41.281Z,102560.41
2022-11-11T23:51:07.834Z,102562.88
2022-11-11T23:53:34.921Z,102565.84
2022-11-11T23:56:02.411Z,102565.84
2022-11-11T23:58:29.476Z,102553.91
